Brewster, Washington
Current Conditions -  °F | °C
As of 10:53 PM on Monday 20 Oct 2014 (Local Time) from KOMK Reporting Station
Overcast Overcast  
Wind Chill: 52°   Ceiling: 2900
Heat Index: 52°   Visibility: 10mi
Dew Point: 49°   Wind: 6mph
Humidity: 89%   Direction: 170°S
Pressure: 29.77"   Gusts: NA
Location:  48.1°N, 119.78°W
Report Text: KOMK 210553Z AUTO 17005KT 10SM OVC029 11/09 A2977 RMK AO2 SLP084 60005 T01110094 10133 20111 53006
Loading
Personal Weather Stations






























Interactive Weather Map
Tropical Storm Tracking
New forecast layout! Learn more

10-Day Weather Forecast

Advertisements
Track Severe Weather on mobile